createdAt,value
2017-12-31T00:00:07.077Z,9.6
2017-12-31T00:00:23.395Z,9.6
2017-12-31T00:00:39.717Z,9.6
2017-12-31T00:00:56.045Z,9.6
2017-12-31T00:01:12.359Z,9.6
2017-12-31T00:01:28.680Z,9.6
2017-12-31T00:01:45.004Z,9.5
2017-12-31T00:02:01.470Z,9.6
2017-12-31T00:02:17.791Z,9.5
2017-12-31T00:02:34.115Z,9.6
2017-12-31T00:02:50.440Z,9.6
2017-12-31T00:03:06.762Z,9.6
2017-12-31T00:03:23.085Z,9.6
2017-12-31T00:03:39.408Z,9.5
2017-12-31T00:03:55.731Z,9.5
2017-12-31T00:04:12.053Z,9.5
2017-12-31T00:04:28.375Z,9.5
2017-12-31T00:04:44.698Z,9.5
2017-12-31T00:05:01.023Z,9.6
2017-12-31T00:05:17.344Z,9.5
2017-12-31T00:05:33.662Z,9.5
2017-12-31T00:05:49.982Z,9.5
2017-12-31T00:06:06.305Z,9.5
2017-12-31T00:06:22.627Z,9.5
2017-12-31T00:06:38.950Z,9.5
2017-12-31T00:06:55.270Z,9.5
2017-12-31T00:07:11.591Z,9.5
2017-12-31T00:07:27.911Z,9.5
2017-12-31T00:07:44.232Z,9.5
2017-12-31T00:08:00.557Z,9.5
2017-12-31T00:08:16.875Z,9.6
2017-12-31T00:08:33.207Z,9.5
2017-12-31T00:08:49.531Z,9.5
2017-12-31T00:09:05.849Z,9.5
2017-12-31T00:09:22.169Z,9.5
2017-12-31T00:09:38.493Z,9.5
2017-12-31T00:09:54.812Z,9.5
2017-12-31T00:10:11.145Z,9.5
2017-12-31T00:10:27.454Z,9.5
2017-12-31T00:10:43.776Z,9.5
2017-12-31T00:11:00.098Z,9.5
2017-12-31T00:11:16.419Z,9.5
2017-12-31T00:11:32.742Z,9.5
2017-12-31T00:11:49.062Z,9.4
2017-12-31T00:12:05.379Z,9.4
2017-12-31T00:12:21.697Z,9.4
2017-12-31T00:12:38.017Z,9.4
2017-12-31T00:12:54.340Z,9.4
2017-12-31T00:13:10.661Z,9.4
2017-12-31T00:13:26.982Z,9.4
2017-12-31T00:13:43.306Z,9.4
2017-12-31T00:13:59.626Z,9.4
2017-12-31T00:14:15.949Z,9.4
2017-12-31T00:14:32.271Z,9.5
2017-12-31T00:14:48.595Z,9.5
2017-12-31T00:15:04.914Z,9.5
2017-12-31T00:15:21.445Z,9.5
2017-12-31T00:15:37.556Z,9.5
2017-12-31T00:15:53.875Z,9.5
2017-12-31T00:16:10.196Z,9.5
2017-12-31T00:16:26.511Z,9.5
2017-12-31T00:16:42.832Z,9.5
2017-12-31T00:16:59.156Z,9.5
2017-12-31T00:17:15.474Z,9.5
2017-12-31T00:17:31.798Z,9.5
2017-12-31T00:17:48.123Z,9.5
2017-12-31T00:18:04.444Z,9.5
2017-12-31T00:18:20.767Z,9.5
2017-12-31T00:18:37.084Z,9.5
2017-12-31T00:18:53.402Z,9.5
2017-12-31T00:19:09.726Z,9.5
2017-12-31T00:19:26.045Z,9.5
2017-12-31T00:19:42.365Z,9.5
2017-12-31T00:19:58.684Z,9.5
2017-12-31T00:20:15.003Z,9.5
2017-12-31T00:20:31.326Z,9.5
2017-12-31T00:20:47.646Z,9.5
2017-12-31T00:21:03.966Z,9.5
2017-12-31T00:21:20.287Z,9.5
2017-12-31T00:21:36.615Z,9.5
2017-12-31T00:21:52.939Z,9.5
2017-12-31T00:22:09.258Z,9.5
2017-12-31T00:22:25.577Z,9.5
2017-12-31T00:22:41.896Z,9.5
2017-12-31T00:22:58.217Z,9.5
2017-12-31T00:23:14.536Z,9.5
2017-12-31T00:23:30.857Z,9.5
2017-12-31T00:23:47.175Z,9.5
2017-12-31T00:24:03.493Z,9.5
2017-12-31T00:24:19.817Z,9.5
2017-12-31T00:24:36.144Z,9.5
2017-12-31T00:24:52.460Z,9.5
2017-12-31T00:25:08.805Z,9.6
2017-12-31T00:25:25.130Z,9.6
2017-12-31T00:25:41.450Z,9.5
2017-12-31T00:25:57.771Z,9.5
2017-12-31T00:26:14.092Z,9.5
2017-12-31T00:26:30.417Z,9.5
2017-12-31T00:26:46.738Z,9.6
2017-12-31T00:27:03.062Z,9.6
2017-12-31T00:27:19.378Z,9.6
2017-12-31T00:27:35.702Z,9.6
2017-12-31T00:27:52.020Z,9.5
2017-12-31T00:28:08.337Z,9.5
2017-12-31T00:28:24.661Z,9.5
2017-12-31T00:28:40.985Z,9.5
2017-12-31T00:28:57.298Z,9.5
2017-12-31T00:29:13.619Z,9.5
2017-12-31T00:29:29.941Z,9.5
2017-12-31T00:29:46.264Z,9.5
2017-12-31T00:30:02.585Z,9.5
2017-12-31T00:30:18.911Z,9.5
2017-12-31T00:30:35.228Z,9.5
2017-12-31T00:30:51.548Z,9.5
2017-12-31T00:31:07.870Z,9.5
2017-12-31T00:31:24.190Z,9.5
2017-12-31T00:31:40.511Z,9.5
2017-12-31T00:31:56.831Z,9.5
2017-12-31T00:32:13.151Z,9.5
2017-12-31T00:32:29.473Z,9.5
2017-12-31T00:32:45.797Z,9.5
2017-12-31T00:33:02.118Z,9.5
2017-12-31T00:33:18.435Z,9.6
2017-12-31T00:33:34.754Z,9.5
2017-12-31T00:33:51.075Z,9.5
2017-12-31T00:34:07.390Z,9.5
2017-12-31T00:34:23.711Z,9.6
2017-12-31T00:34:40.028Z,9.5
2017-12-31T00:34:56.351Z,9.6
2017-12-31T00:35:12.678Z,9.5
2017-12-31T00:35:28.988Z,9.5
2017-12-31T00:35:45.303Z,9.5
2017-12-31T00:36:01.627Z,9.5
2017-12-31T00:36:17.945Z,9.5
2017-12-31T00:36:34.268Z,9.5
2017-12-31T00:36:50.587Z,9.5
2017-12-31T00:37:06.905Z,9.5
2017-12-31T00:37:23.222Z,9.5
2017-12-31T00:37:39.545Z,9.5
2017-12-31T00:37:55.867Z,9.5
2017-12-31T00:38:12.187Z,9.5
2017-12-31T00:38:28.502Z,9.5
2017-12-31T00:38:44.819Z,9.5
2017-12-31T00:39:01.139Z,9.5
2017-12-31T00:39:17.459Z,9.5
2017-12-31T00:39:33.783Z,9.5
2017-12-31T00:39:50.104Z,9.5
2017-12-31T00:40:06.422Z,9.5
2017-12-31T00:40:22.742Z,9.6
2017-12-31T00:40:39.062Z,9.6
2017-12-31T00:40:55.386Z,9.6
2017-12-31T00:41:11.708Z,9.6
2017-12-31T00:41:28.028Z,9.5
2017-12-31T00:41:44.348Z,9.5
2017-12-31T00:42:00.671Z,9.5
2017-12-31T00:42:16.995Z,9.4
2017-12-31T00:42:33.312Z,9.4
2017-12-31T00:42:49.628Z,9.4
2017-12-31T00:43:05.948Z,9.4
2017-12-31T00:43:22.274Z,9.4
2017-12-31T00:43:38.592Z,9.4
2017-12-31T00:43:54.912Z,9.4
2017-12-31T00:44:11.229Z,9.4
2017-12-31T00:44:27.549Z,9.4
2017-12-31T00:44:43.871Z,9.4
2017-12-31T00:45:00.190Z,9.4
2017-12-31T00:45:16.509Z,9.4
2017-12-31T00:45:32.828Z,9.4
2017-12-31T00:45:49.151Z,9.4
2017-12-31T00:46:05.474Z,9.5
2017-12-31T00:46:21.790Z,9.5
2017-12-31T00:46:38.112Z,9.5
2017-12-31T00:46:54.432Z,9.5
2017-12-31T00:47:10.750Z,9.5
2017-12-31T00:47:27.074Z,9.5
2017-12-31T00:47:43.393Z,9.5
2017-12-31T00:47:59.712Z,9.5
2017-12-31T00:48:16.032Z,9.5
2017-12-31T00:48:32.353Z,9.5
2017-12-31T00:48:48.674Z,9.5
2017-12-31T00:49:04.990Z,9.5
2017-12-31T00:49:21.309Z,9.5
2017-12-31T00:49:37.628Z,9.5
2017-12-31T00:49:53.951Z,9.5
2017-12-31T00:50:10.274Z,9.5
2017-12-31T00:50:26.597Z,9.5
2017-12-31T00:50:42.918Z,9.5
2017-12-31T00:50:59.238Z,9.5
2017-12-31T00:51:15.557Z,9.4
2017-12-31T00:51:31.880Z,9.5
2017-12-31T00:51:48.208Z,9.5
2017-12-31T00:52:04.522Z,9.4
2017-12-31T00:52:20.841Z,9.5
2017-12-31T00:52:37.164Z,9.4
2017-12-31T00:52:53.486Z,9.4
2017-12-31T00:53:09.800Z,9.4
2017-12-31T00:53:26.120Z,9.4
2017-12-31T00:53:42.438Z,9.4
2017-12-31T00:53:58.761Z,9.4
2017-12-31T00:54:15.084Z,9.5
2017-12-31T00:54:31.400Z,9.5
2017-12-31T00:54:47.728Z,9.5
2017-12-31T00:55:04.042Z,9.5
2017-12-31T00:55:20.368Z,9.5
2017-12-31T00:55:36.689Z,9.5
2017-12-31T00:55:53.013Z,9.5
2017-12-31T00:56:09.334Z,9.5
2017-12-31T00:56:25.651Z,9.5
2017-12-31T00:56:41.970Z,9.5
2017-12-31T00:56:58.294Z,9.5
2017-12-31T00:57:14.613Z,9.5
2017-12-31T00:57:30.931Z,9.5
2017-12-31T00:57:47.251Z,9.5
2017-12-31T00:58:03.578Z,9.5
2017-12-31T00:58:19.900Z,9.5
2017-12-31T00:58:36.222Z,9.5
2017-12-31T00:58:52.544Z,9.5
2017-12-31T00:59:08.867Z,9.5
2017-12-31T00:59:25.189Z,9.5
2017-12-31T00:59:41.513Z,9.5
2017-12-31T00:59:57.839Z,9.5
2017-12-31T01:00:14.154Z,9.5
2017-12-31T01:00:30.471Z,9.5
2017-12-31T01:00:46.790Z,9.5
2017-12-31T01:01:03.113Z,9.5
2017-12-31T01:01:19.428Z,9.5
2017-12-31T01:01:35.746Z,9.5
2017-12-31T01:01:52.065Z,9.5
2017-12-31T01:02:08.390Z,9.5
2017-12-31T01:02:24.713Z,9.5
2017-12-31T01:02:41.028Z,9.5
2017-12-31T01:02:57.344Z,9.4
2017-12-31T01:03:13.667Z,9.4
2017-12-31T01:03:29.986Z,9.4
2017-12-31T01:03:46.310Z,9.4
2017-12-31T01:04:02.635Z,9.4
2017-12-31T01:04:18.953Z,9.5
2017-12-31T01:04:35.273Z,9.4
2017-12-31T01:04:51.603Z,9.5
2017-12-31T01:05:07.922Z,9.4
2017-12-31T01:05:24.238Z,9.4
2017-12-31T01:05:40.556Z,9.4
2017-12-31T01:05:56.876Z,9.4
2017-12-31T01:06:13.194Z,9.4
2017-12-31T01:06:29.516Z,9.5
2017-12-31T01:06:45.835Z,9.5
2017-12-31T01:07:02.156Z,9.5
2017-12-31T01:07:18.474Z,9.4
2017-12-31T01:07:34.800Z,9.4
2017-12-31T01:07:51.119Z,9.4
2017-12-31T01:08:07.441Z,9.4
2017-12-31T01:08:23.764Z,9.4
2017-12-31T01:08:40.084Z,9.3
2017-12-31T01:08:56.410Z,9.4
2017-12-31T01:09:12.732Z,9.3
2017-12-31T01:09:29.048Z,9.4
2017-12-31T01:09:45.366Z,9.4
2017-12-31T01:10:01.686Z,9.4
2017-12-31T01:10:18.009Z,9.4
2017-12-31T01:10:34.332Z,9.4
2017-12-31T01:10:50.648Z,9.4
2017-12-31T01:11:06.979Z,9.4
2017-12-31T01:11:23.296Z,9.4
2017-12-31T01:11:39.619Z,9.4
2017-12-31T01:11:55.942Z,9.4
2017-12-31T01:12:12.261Z,9.4
2017-12-31T01:12:28.580Z,9.4
2017-12-31T01:12:44.900Z,9.4
2017-12-31T01:13:01.219Z,9.4
2017-12-31T01:13:17.542Z,9.4
2017-12-31T01:13:33.851Z,9.4
2017-12-31T01:13:50.173Z,9.4
2017-12-31T01:14:06.495Z,9.4
2017-12-31T01:14:22.813Z,9.4
2017-12-31T01:14:39.135Z,9.4
2017-12-31T01:14:55.451Z,9.4
2017-12-31T01:15:11.767Z,9.4
2017-12-31T01:15:28.091Z,9.4
2017-12-31T01:15:44.410Z,9.4
2017-12-31T01:16:00.733Z,9.4
2017-12-31T01:16:17.060Z,9.4
2017-12-31T01:16:33.373Z,9.4
2017-12-31T01:16:49.694Z,9.4
2017-12-31T01:17:06.016Z,9.4
2017-12-31T01:17:22.340Z,9.4
2017-12-31T01:17:38.657Z,9.4
2017-12-31T01:17:54.973Z,9.3
2017-12-31T01:18:11.292Z,9.3
2017-12-31T01:18:27.612Z,9.3
2017-12-31T01:18:43.935Z,9.3
2017-12-31T01:19:00.251Z,9.3
2017-12-31T01:19:16.571Z,9.3
2017-12-31T01:19:32.889Z,9.3
2017-12-31T01:19:49.209Z,9.3
2017-12-31T01:20:05.531Z,9.3
2017-12-31T01:20:21.851Z,9.3
2017-12-31T01:20:38.177Z,9.3
2017-12-31T01:20:54.496Z,9.3
2017-12-31T01:21:10.816Z,9.4
2017-12-31T01:21:27.135Z,9.3
2017-12-31T01:21:43.454Z,9.3
2017-12-31T01:21:59.777Z,9.3
2017-12-31T01:22:16.100Z,9.3
2017-12-31T01:22:32.420Z,9.3
2017-12-31T01:22:48.742Z,9.4
2017-12-31T01:23:05.067Z,9.4
2017-12-31T01:23:21.390Z,9.4
2017-12-31T01:23:37.711Z,9.4
2017-12-31T01:23:54.033Z,9.4
2017-12-31T01:24:10.358Z,9.4
2017-12-31T01:24:26.680Z,9.4
2017-12-31T01:24:42.999Z,9.4
2017-12-31T01:24:59.319Z,9.4
2017-12-31T01:25:15.637Z,9.3
2017-12-31T01:25:31.966Z,9.4
2017-12-31T01:25:48.283Z,9.3
2017-12-31T01:26:04.603Z,9.3
2017-12-31T01:26:20.924Z,9.3
2017-12-31T01:26:37.245Z,9.3
2017-12-31T01:26:53.567Z,9.3
2017-12-31T01:27:09.884Z,9.3
2017-12-31T01:27:26.202Z,9.3
2017-12-31T01:27:42.521Z,9.3
2017-12-31T01:27:58.839Z,9.3
2017-12-31T01:28:15.163Z,9.3
2017-12-31T01:28:31.485Z,9.3
2017-12-31T01:28:47.806Z,9.3
2017-12-31T01:29:04.128Z,9.3
2017-12-31T01:29:20.452Z,9.3
2017-12-31T01:29:36.773Z,9.3
2017-12-31T01:29:53.093Z,9.3
2017-12-31T01:30:09.414Z,9.3
2017-12-31T01:30:25.735Z,9.3
2017-12-31T01:30:42.049Z,9.3
2017-12-31T01:30:58.374Z,9.3
2017-12-31T01:31:14.700Z,9.4
2017-12-31T01:31:31.015Z,9.4
2017-12-31T01:31:47.338Z,9.3
2017-12-31T01:32:03.661Z,9.3
2017-12-31T01:32:19.983Z,9.3
2017-12-31T01:32:36.302Z,9.3
2017-12-31T01:32:52.623Z,9.3
2017-12-31T01:33:08.944Z,9.3
2017-12-31T01:33:25.257Z,9.3
2017-12-31T01:33:41.579Z,9.3
2017-12-31T01:33:57.900Z,9.3
2017-12-31T01:34:14.221Z,9.3
2017-12-31T01:34:30.541Z,9.3
2017-12-31T01:34:46.865Z,9.3
2017-12-31T01:35:03.186Z,9.3
2017-12-31T01:35:19.508Z,9.3
2017-12-31T01:35:35.832Z,9.2
2017-12-31T01:35:52.146Z,9.2
2017-12-31T01:36:08.465Z,9.2
2017-12-31T01:36:24.786Z,9.2
2017-12-31T01:36:41.107Z,9.2
2017-12-31T01:36:57.427Z,9.2
2017-12-31T01:37:13.747Z,9.2
2017-12-31T01:37:30.068Z,9.2
2017-12-31T01:37:46.390Z,9.2
2017-12-31T01:38:02.710Z,9.2
2017-12-31T01:38:19.033Z,9.2
2017-12-31T01:38:35.348Z,9.2
2017-12-31T01:38:51.668Z,9.2
2017-12-31T01:39:07.990Z,9.2
2017-12-31T01:39:24.303Z,9.2
2017-12-31T01:39:40.622Z,9.2
2017-12-31T01:39:56.943Z,9.2
2017-12-31T01:40:13.272Z,9.2
2017-12-31T01:40:29.593Z,9.2
2017-12-31T01:40:45.916Z,9.2
2017-12-31T01:41:02.239Z,9.2
2017-12-31T01:41:18.560Z,9.2
2017-12-31T01:41:34.879Z,9.1
2017-12-31T01:41:51.202Z,9.2
2017-12-31T01:42:07.521Z,9.2
2017-12-31T01:42:23.839Z,9.1
2017-12-31T01:42:40.160Z,9.1
2017-12-31T01:42:56.477Z,9.1
2017-12-31T01:43:12.800Z,9.1
2017-12-31T01:43:29.116Z,9.1
2017-12-31T01:43:45.436Z,9.1
2017-12-31T01:44:01.755Z,9.1
2017-12-31T01:44:18.078Z,9.1
2017-12-31T01:44:34.391Z,9.1
2017-12-31T01:44:50.712Z,9.1
2017-12-31T01:45:07.034Z,9.1
2017-12-31T01:45:23.353Z,9
2017-12-31T01:45:39.671Z,9
2017-12-31T01:45:55.993Z,9
2017-12-31T01:46:12.315Z,9
2017-12-31T01:46:28.643Z,9
2017-12-31T01:46:44.965Z,9
2017-12-31T01:47:01.282Z,9
2017-12-31T01:47:17.599Z,9
2017-12-31T01:47:33.922Z,9
2017-12-31T01:47:50.245Z,9.1
2017-12-31T01:48:06.566Z,9.1
2017-12-31T01:48:22.887Z,9
2017-12-31T01:48:39.209Z,9
2017-12-31T01:48:55.532Z,9.1
2017-12-31T01:49:11.854Z,9.1
2017-12-31T01:49:28.178Z,9
2017-12-31T01:49:44.497Z,9
2017-12-31T01:50:00.822Z,9
2017-12-31T01:50:17.144Z,9
2017-12-31T01:50:33.462Z,9
2017-12-31T01:50:49.783Z,9
2017-12-31T01:51:06.104Z,9
2017-12-31T01:51:22.422Z,9
2017-12-31T01:51:38.747Z,9.1
2017-12-31T01:51:55.068Z,9.1
2017-12-31T01:52:11.393Z,9
2017-12-31T01:52:27.710Z,9
2017-12-31T01:52:44.029Z,9
2017-12-31T01:53:00.347Z,9
2017-12-31T01:53:16.667Z,9
2017-12-31T01:53:32.992Z,9
2017-12-31T01:53:49.309Z,9
2017-12-31T01:54:05.628Z,9
2017-12-31T01:54:21.951Z,9
2017-12-31T01:54:38.274Z,8.9
2017-12-31T01:54:54.592Z,8.9
2017-12-31T01:55:10.910Z,9
2017-12-31T01:55:27.229Z,9
2017-12-31T01:55:43.547Z,9
2017-12-31T01:55:59.870Z,8.9
2017-12-31T01:56:16.190Z,8.9
2017-12-31T01:56:32.512Z,8.9
2017-12-31T01:56:48.842Z,8.9
2017-12-31T01:57:05.155Z,8.9
2017-12-31T01:57:21.474Z,8.9
2017-12-31T01:57:37.791Z,8.8
2017-12-31T01:57:54.110Z,8.8
2017-12-31T01:58:10.429Z,8.8
2017-12-31T01:58:26.750Z,8.8
2017-12-31T01:58:43.071Z,8.9
2017-12-31T01:58:59.393Z,8.9
2017-12-31T01:59:15.713Z,8.9
2017-12-31T01:59:32.039Z,8.9
2017-12-31T01:59:48.358Z,8.8
2017-12-31T02:00:04.684Z,8.9
2017-12-31T02:00:21.005Z,8.9
2017-12-31T02:00:37.325Z,8.9
2017-12-31T02:00:53.645Z,8.9
2017-12-31T02:01:10.006Z,8.9
2017-12-31T02:01:26.290Z,8.8
2017-12-31T02:01:42.609Z,8.8
2017-12-31T02:01:58.933Z,8.8
2017-12-31T02:02:15.254Z,8.8
2017-12-31T02:02:31.574Z,8.8
2017-12-31T02:02:47.899Z,8.8
2017-12-31T02:03:04.225Z,8.8
2017-12-31T02:03:20.545Z,8.8
2017-12-31T02:03:36.867Z,8.8
2017-12-31T02:03:53.186Z,8.8
2017-12-31T02:04:09.509Z,8.8
2017-12-31T02:04:25.832Z,8.8
2017-12-31T02:04:42.151Z,8.8
2017-12-31T02:04:58.474Z,8.8
2017-12-31T02:05:14.792Z,8.8
2017-12-31T02:05:31.116Z,8.8
2017-12-31T02:05:47.443Z,8.9
2017-12-31T02:06:03.768Z,8.9
2017-12-31T02:06:20.093Z,8.9
2017-12-31T02:06:36.408Z,8.9
2017-12-31T02:06:52.732Z,8.9
2017-12-31T02:07:09.054Z,8.9
2017-12-31T02:07:25.371Z,8.9
2017-12-31T02:07:41.702Z,8.9
2017-12-31T02:07:58.015Z,8.9
2017-12-31T02:08:14.339Z,8.9
2017-12-31T02:08:30.664Z,8.9
2017-12-31T02:08:46.980Z,8.9
2017-12-31T02:09:03.302Z,8.9
2017-12-31T02:09:19.627Z,8.8
2017-12-31T02:09:35.951Z,8.9
2017-12-31T02:09:52.270Z,8.9
2017-12-31T02:10:08.587Z,8.8
2017-12-31T02:10:24.915Z,8.8
2017-12-31T02:10:41.239Z,8.8
2017-12-31T02:10:57.560Z,8.9
2017-12-31T02:11:13.881Z,8.8
2017-12-31T02:11:30.199Z,8.8
2017-12-31T02:11:46.525Z,8.9
2017-12-31T02:12:02.851Z,8.8
2017-12-31T02:12:19.170Z,8.8
2017-12-31T02:12:35.489Z,8.8
2017-12-31T02:12:51.810Z,8.9
2017-12-31T02:13:08.135Z,8.9
2017-12-31T02:13:24.462Z,8.9
2017-12-31T02:13:40.785Z,8.9
2017-12-31T02:13:57.109Z,8.9
2017-12-31T02:14:13.429Z,8.9
2017-12-31T02:14:29.750Z,8.9
2017-12-31T02:14:46.071Z,8.9
2017-12-31T02:15:02.393Z,8.8
2017-12-31T02:15:18.715Z,8.8
2017-12-31T02:15:35.038Z,8.8
2017-12-31T02:15:51.354Z,8.8
2017-12-31T02:16:07.681Z,8.9
2017-12-31T02:16:24.000Z,8.8
2017-12-31T02:16:40.322Z,8.8
2017-12-31T02:16:56.640Z,8.8
2017-12-31T02:17:12.965Z,8.8
2017-12-31T02:17:29.288Z,8.9
2017-12-31T02:17:45.609Z,8.9
2017-12-31T02:18:01.931Z,8.8
2017-12-31T02:18:18.255Z,8.8
2017-12-31T02:18:34.577Z,8.9
2017-12-31T02:18:50.897Z,8.9
2017-12-31T02:19:07.240Z,8.9
2017-12-31T02:19:23.540Z,8.9
2017-12-31T02:19:39.863Z,8.9
2017-12-31T02:19:56.186Z,8.9
2017-12-31T02:20:12.511Z,8.9
2017-12-31T02:20:28.831Z,8.8
2017-12-31T02:20:45.151Z,8.8
2017-12-31T02:21:01.471Z,8.8
2017-12-31T02:21:17.795Z,8.8
2017-12-31T02:21:34.120Z,8.8
2017-12-31T02:21:50.440Z,8.9
2017-12-31T02:22:06.763Z,8.9
2017-12-31T02:22:23.087Z,8.9
2017-12-31T02:22:39.408Z,8.9
2017-12-31T02:22:55.732Z,8.9
2017-12-31T02:23:12.050Z,8.9
2017-12-31T02:23:28.372Z,8.9
2017-12-31T02:23:44.701Z,9
2017-12-31T02:24:01.017Z,8.9
2017-12-31T02:24:17.343Z,8.9
2017-12-31T02:24:33.665Z,8.9
2017-12-31T02:24:49.989Z,8.9
2017-12-31T02:25:06.313Z,8.9
2017-12-31T02:25:22.637Z,8.9
2017-12-31T02:25:38.955Z,8.9
2017-12-31T02:25:55.276Z,8.9
2017-12-31T02:26:11.599Z,8.9
2017-12-31T02:26:27.921Z,9
2017-12-31T02:26:44.240Z,9
2017-12-31T02:27:00.568Z,8.9
2017-12-31T02:27:16.889Z,8.9
2017-12-31T02:27:33.211Z,9
2017-12-31T02:27:49.529Z,8.9
2017-12-31T02:28:05.854Z,8.9
2017-12-31T02:28:22.180Z,8.9
2017-12-31T02:28:38.499Z,8.9
2017-12-31T02:28:54.817Z,8.9
2017-12-31T02:29:11.141Z,8.9
2017-12-31T02:29:27.459Z,8.9
2017-12-31T02:29:43.787Z,8.9
2017-12-31T02:30:00.111Z,9
2017-12-31T02:30:16.430Z,9
2017-12-31T02:30:32.757Z,8.9
2017-12-31T02:30:49.075Z,8.9
2017-12-31T02:31:05.397Z,8.9
2017-12-31T02:31:21.718Z,8.9
2017-12-31T02:31:38.047Z,8.9
2017-12-31T02:31:54.370Z,8.9
2017-12-31T02:32:10.687Z,8.9
2017-12-31T02:32:27.006Z,8.9
2017-12-31T02:32:43.334Z,8.9
2017-12-31T02:32:59.657Z,8.9
2017-12-31T02:33:15.979Z,8.9
2017-12-31T02:33:32.295Z,8.9
2017-12-31T02:33:48.622Z,8.9
2017-12-31T02:34:04.941Z,8.9
2017-12-31T02:34:21.265Z,8.9
2017-12-31T02:34:37.586Z,8.9
2017-12-31T02:34:53.904Z,8.9
2017-12-31T02:35:10.228Z,8.9
2017-12-31T02:35:26.550Z,8.8
2017-12-31T02:35:42.868Z,8.8
2017-12-31T02:35:59.188Z,8.8
2017-12-31T02:36:15.508Z,8.8
2017-12-31T02:36:31.828Z,8.8
2017-12-31T02:36:48.148Z,8.8
2017-12-31T02:37:04.469Z,8.7
2017-12-31T02:37:20.786Z,8.7
2017-12-31T02:37:37.105Z,8.8
2017-12-31T02:37:53.427Z,8.8
2017-12-31T02:38:09.744Z,8.8
2017-12-31T02:38:26.064Z,8.7
2017-12-31T02:38:42.388Z,8.7
2017-12-31T02:38:58.704Z,8.7
2017-12-31T02:39:15.028Z,8.7
2017-12-31T02:39:31.351Z,8.7
2017-12-31T02:39:47.674Z,8.7
2017-12-31T02:40:03.990Z,8.7
2017-12-31T02:40:20.305Z,8.7
2017-12-31T02:40:36.628Z,8.7
2017-12-31T02:40:52.951Z,8.7
2017-12-31T02:41:09.271Z,8.7
2017-12-31T02:41:25.589Z,8.7
2017-12-31T02:41:41.905Z,8.7
2017-12-31T02:41:58.228Z,8.7
2017-12-31T02:42:14.552Z,8.7
2017-12-31T02:42:30.874Z,8.7
2017-12-31T02:42:47.193Z,8.7
2017-12-31T02:43:03.518Z,8.7
2017-12-31T02:43:19.838Z,8.7
2017-12-31T02:43:36.162Z,8.7
2017-12-31T02:43:52.478Z,8.6
2017-12-31T02:44:08.799Z,8.6
2017-12-31T02:44:25.120Z,8.6
2017-12-31T02:44:41.438Z,8.6
2017-12-31T02:44:57.763Z,8.7
2017-12-31T02:45:14.084Z,8.6
2017-12-31T02:45:30.403Z,8.6
2017-12-31T02:45:46.721Z,8.6
2017-12-31T02:46:03.049Z,8.6
2017-12-31T02:46:19.367Z,8.6
2017-12-31T02:46:35.685Z,8.6
2017-12-31T02:46:52.010Z,8.6
2017-12-31T02:47:08.324Z,8.5
2017-12-31T02:47:24.644Z,8.5
2017-12-31T02:47:40.967Z,8.5
2017-12-31T02:47:57.285Z,8.5
2017-12-31T02:48:13.603Z,8.5
2017-12-31T02:48:29.921Z,8.5
2017-12-31T02:48:46.240Z,8.5
2017-12-31T02:49:02.570Z,8.5
2017-12-31T02:49:18.887Z,8.6
2017-12-31T02:49:35.214Z,8.6
2017-12-31T02:49:51.533Z,8.6
2017-12-31T02:50:07.856Z,8.6
2017-12-31T02:50:24.179Z,8.5
2017-12-31T02:50:40.494Z,8.5
2017-12-31T02:50:56.815Z,8.5
2017-12-31T02:51:13.134Z,8.5
2017-12-31T02:51:29.456Z,8.6
2017-12-31T02:51:45.775Z,8.5
2017-12-31T02:52:02.099Z,8.5
2017-12-31T02:52:18.412Z,8.5
2017-12-31T02:52:34.734Z,8.5
2017-12-31T02:52:51.056Z,8.5
2017-12-31T02:53:07.373Z,8.5
2017-12-31T02:53:23.697Z,8.5
2017-12-31T02:53:40.022Z,8.5
2017-12-31T02:53:56.337Z,8.5
2017-12-31T02:54:12.659Z,8.5
2017-12-31T02:54:28.982Z,8.5
2017-12-31T02:54:45.297Z,8.5
2017-12-31T02:55:01.616Z,8.5
2017-12-31T02:55:17.936Z,8.4
2017-12-31T02:55:34.260Z,8.4
2017-12-31T02:55:50.581Z,8.4
2017-12-31T02:56:06.898Z,8.4
2017-12-31T02:56:23.221Z,8.4
2017-12-31T02:56:39.540Z,8.5
2017-12-31T02:56:55.864Z,8.5
2017-12-31T02:57:12.179Z,8.4
2017-12-31T02:57:28.496Z,8.4
2017-12-31T02:57:44.815Z,8.4
2017-12-31T02:58:01.135Z,8.4
2017-12-31T02:58:17.459Z,8.4
2017-12-31T02:58:33.776Z,8.4
2017-12-31T02:58:50.094Z,8.4
2017-12-31T02:59:06.419Z,8.5
2017-12-31T02:59:22.739Z,8.5
2017-12-31T02:59:39.063Z,8.5
2017-12-31T02:59:55.379Z,8.4
2017-12-31T03:00:11.700Z,8.5
2017-12-31T03:00:28.018Z,8.5
2017-12-31T03:00:44.340Z,8.5
2017-12-31T03:01:00.659Z,8.4
2017-12-31T03:01:16.982Z,8.4
2017-12-31T03:01:33.300Z,8.4
2017-12-31T03:01:49.664Z,8.4
2017-12-31T03:02:05.938Z,8.4
2017-12-31T03:02:22.262Z,8.4
2017-12-31T03:02:38.586Z,8.4
2017-12-31T03:02:54.907Z,8.4
2017-12-31T03:03:11.226Z,8.4
2017-12-31T03:03:27.549Z,8.3
2017-12-31T03:03:43.875Z,8.4
2017-12-31T03:04:00.194Z,8.4
2017-12-31T03:04:16.510Z,8.4
2017-12-31T03:04:32.824Z,8.3
2017-12-31T03:04:49.146Z,8.4
2017-12-31T03:05:05.467Z,8.4
2017-12-31T03:05:21.788Z,8.4
2017-12-31T03:05:38.106Z,8.4
2017-12-31T03:05:54.423Z,8.4
2017-12-31T03:06:10.743Z,8.4
2017-12-31T03:06:27.065Z,8.3
2017-12-31T03:06:43.388Z,8.3
2017-12-31T03:06:59.715Z,8.3
2017-12-31T03:07:16.026Z,8.2
2017-12-31T03:07:32.349Z,8.2
2017-12-31T05:12:27.521Z,8.3
2017-12-31T05:12:43.852Z,8.3
2017-12-31T05:13:00.180Z,8.3
2017-12-31T06:20:16.056Z,9.2
2017-12-31T06:25:41.173Z,10.5
2017-12-31T06:25:57.499Z,10.5
2017-12-31T06:26:13.823Z,10.5
2017-12-31T06:26:30.140Z,10.5
2017-12-31T06:26:46.462Z,10.5
2017-12-31T06:27:02.785Z,10.5
2017-12-31T06:27:19.108Z,10.5
2017-12-31T06:27:35.431Z,10.4
2017-12-31T06:27:51.754Z,10.4
2017-12-31T06:28:08.076Z,10.4
2017-12-31T06:28:24.397Z,10.4
2017-12-31T06:28:40.718Z,10.4
2017-12-31T06:28:57.040Z,10.4
2017-12-31T06:29:13.365Z,10.3
2017-12-31T06:29:29.685Z,10.3
2017-12-31T06:29:46.011Z,10.3
2017-12-31T06:30:02.328Z,10.3
2017-12-31T06:30:18.656Z,10.3
2017-12-31T06:30:34.974Z,10.3
2017-12-31T06:30:51.298Z,10.3
2017-12-31T06:31:07.623Z,10.3
2017-12-31T06:31:23.947Z,10.3
2017-12-31T06:31:40.269Z,10.3
2017-12-31T06:31:56.594Z,10.3
2017-12-31T06:32:12.914Z,10.3
2017-12-31T06:32:29.238Z,10.3
2017-12-31T06:32:45.608Z,10.3
2017-12-31T06:33:01.940Z,10.3
2017-12-31T06:33:18.250Z,10.3
2017-12-31T06:33:34.577Z,10.3
2017-12-31T06:33:50.899Z,10.3
2017-12-31T06:34:07.223Z,10.3
2017-12-31T06:34:23.543Z,10.3
2017-12-31T06:34:39.865Z,10.3
2017-12-31T06:34:56.190Z,10.4
2017-12-31T06:35:12.512Z,10.4
2017-12-31T06:35:28.836Z,10.4
2017-12-31T06:35:45.158Z,10.4
2017-12-31T06:36:01.485Z,10.4
2017-12-31T06:36:17.806Z,10.4
2017-12-31T06:36:34.124Z,10.4
2017-12-31T06:36:50.442Z,10.4
2017-12-31T06:37:06.765Z,10.4
2017-12-31T06:37:23.092Z,10.4
2017-12-31T06:37:39.413Z,10.4
2017-12-31T06:37:55.738Z,10.4
2017-12-31T06:38:12.062Z,10.4
2017-12-31T06:38:28.387Z,10.4
2017-12-31T06:38:44.710Z,10.4
2017-12-31T06:39:01.032Z,10.4
2017-12-31T06:39:17.356Z,10.5
2017-12-31T06:39:33.678Z,10.5
2017-12-31T06:39:50.000Z,10.5
2017-12-31T06:40:06.323Z,10.5
2017-12-31T06:40:22.644Z,10.5
2017-12-31T06:40:38.969Z,10.6
2017-12-31T06:40:55.296Z,10.6
2017-12-31T06:41:11.613Z,10.6
2017-12-31T06:41:27.939Z,10.6
2017-12-31T06:41:44.258Z,10.6
2017-12-31T06:42:00.595Z,10.6
2017-12-31T06:42:16.913Z,10.6
2017-12-31T06:42:33.247Z,10.7
2017-12-31T06:42:49.564Z,10.7
2017-12-31T06:43:05.887Z,10.7
2017-12-31T06:43:22.210Z,10.7
2017-12-31T06:43:38.538Z,10.7
2017-12-31T06:43:54.869Z,10.7
2017-12-31T06:44:11.194Z,10.7
2017-12-31T06:44:27.515Z,10.7
2017-12-31T06:44:43.674Z,10.7
2017-12-31T06:44:59.998Z,10.7
2017-12-31T06:45:16.318Z,10.7
2017-12-31T06:45:32.642Z,10.8
2017-12-31T06:45:48.972Z,10.8
2017-12-31T06:46:05.299Z,10.8
2017-12-31T06:46:21.625Z,10.8
2017-12-31T06:46:37.949Z,10.7
2017-12-31T06:46:54.275Z,10.8
2017-12-31T06:47:10.596Z,10.8
2017-12-31T06:47:26.927Z,10.8
2017-12-31T06:47:43.252Z,10.8
2017-12-31T06:47:59.574Z,10.8
2017-12-31T06:48:15.900Z,10.8
2017-12-31T06:48:32.226Z,10.9
2017-12-31T06:48:48.552Z,10.9
2017-12-31T06:49:04.880Z,10.9
2017-12-31T06:49:21.204Z,10.9
2017-12-31T06:49:37.530Z,10.9
2017-12-31T06:49:53.855Z,10.9
2017-12-31T06:50:10.180Z,10.9
2017-12-31T06:50:26.507Z,11
2017-12-31T06:50:42.830Z,11
2017-12-31T06:50:59.151Z,11
2017-12-31T06:51:15.474Z,11
2017-12-31T06:51:31.805Z,11
2017-12-31T06:51:48.129Z,11
2017-12-31T06:52:04.457Z,11
2017-12-31T06:52:20.781Z,11
2017-12-31T06:52:37.105Z,11
2017-12-31T06:52:53.429Z,11
2017-12-31T06:53:09.753Z,11
2017-12-31T06:53:26.073Z,11
2017-12-31T06:53:42.402Z,11
2017-12-31T06:53:58.724Z,11
2017-12-31T06:54:15.048Z,11
2017-12-31T06:54:31.368Z,11
2017-12-31T06:54:47.695Z,11
2017-12-31T06:55:04.017Z,11
2017-12-31T06:55:20.341Z,11
2017-12-31T06:55:36.663Z,10.9
2017-12-31T06:55:52.985Z,10.9
2017-12-31T06:56:09.308Z,11
2017-12-31T06:56:25.631Z,10.9
2017-12-31T06:56:41.957Z,11
2017-12-31T06:56:58.280Z,11
2017-12-31T06:57:14.609Z,11
2017-12-31T06:57:30.936Z,11
2017-12-31T06:57:47.260Z,11
2017-12-31T06:58:03.586Z,10.9
2017-12-31T06:58:19.906Z,10.9
2017-12-31T06:58:36.231Z,10.9
2017-12-31T06:58:52.558Z,10.9
2017-12-31T06:59:08.876Z,10.9
2017-12-31T06:59:25.205Z,10.9
2017-12-31T06:59:41.527Z,10.9
2017-12-31T06:59:57.852Z,10.9
2017-12-31T07:00:14.175Z,10.9
2017-12-31T07:00:30.498Z,10.9
2017-12-31T07:00:46.818Z,10.9
2017-12-31T07:01:03.144Z,10.9
2017-12-31T07:01:19.470Z,10.9